createdAt,value
2018-04-23T00:00:55.274Z,1007.23
2018-04-23T00:01:55.274Z,1007.26
2018-04-23T00:02:55.273Z,1007.25
2018-04-23T00:03:55.273Z,1007.32
2018-04-23T00:04:55.272Z,1007.33
2018-04-23T00:05:55.273Z,1007.35
2018-04-23T00:06:55.282Z,1007.36
2018-04-23T00:07:55.277Z,1007.38
2018-04-23T00:08:55.273Z,1007.39
2018-04-23T00:09:55.272Z,1007.43
2018-04-23T00:10:55.276Z,1007.44
2018-04-23T00:11:55.275Z,1007.39
2018-04-23T00:12:55.270Z,1007.38
2018-04-23T00:13:55.270Z,1007.34
2018-04-23T00:14:55.271Z,1007.38
2018-04-23T00:15:55.272Z,1007.43
2018-04-23T00:16:55.269Z,1007.50
2018-04-23T00:17:55.274Z,1007.64
2018-04-23T00:18:55.270Z,1007.80
2018-04-23T00:19:55.270Z,1008.06
2018-04-23T00:20:55.270Z,1008.08
2018-04-23T00:21:55.277Z,1008.17
2018-04-23T00:22:55.272Z,1008.11
2018-04-23T00:23:55.269Z,1008.06
2018-04-23T00:24:55.273Z,1007.91
2018-04-23T00:25:55.272Z,1007.95
2018-04-23T00:26:55.269Z,1007.86
2018-04-23T00:27:55.269Z,1007.74
2018-04-23T00:28:55.271Z,1007.72
2018-04-23T00:29:55.271Z,1007.66
2018-04-23T00:30:55.267Z,1007.61
2018-04-23T00:31:55.268Z,1007.57
2018-04-23T00:32:55.266Z,1007.50
2018-04-23T00:33:55.265Z,1007.47
2018-04-23T00:34:55.266Z,1007.41
2018-04-23T00:35:55.265Z,1007.41
2018-04-23T00:36:55.268Z,1007.33
2018-04-23T00:37:55.267Z,1007.31
2018-04-23T00:38:55.265Z,1007.27
2018-04-23T00:39:55.263Z,1007.27
2018-04-23T00:40:55.261Z,1007.28
2018-04-23T00:41:55.261Z,1007.26
2018-04-23T00:42:55.260Z,1007.27
2018-04-23T00:43:55.259Z,1007.30
2018-04-23T00:44:55.261Z,1007.23
2018-04-23T00:45:55.257Z,1007.26
2018-04-23T00:46:55.256Z,1007.30
2018-04-23T00:47:55.256Z,1007.26
2018-04-23T00:48:55.258Z,1007.31
2018-04-23T00:49:55.258Z,1007.30
2018-04-23T00:50:55.257Z,1007.30
2018-04-23T00:51:55.256Z,1007.24
2018-04-23T00:52:55.251Z,1007.23
2018-04-23T00:53:55.250Z,1007.24
2018-04-23T00:54:55.249Z,1007.20
2018-04-23T00:55:55.249Z,1007.19
2018-04-23T00:56:55.247Z,1007.21
2018-04-23T00:57:55.246Z,1007.26
2018-04-23T00:58:55.247Z,1007.23
2018-04-23T00:59:55.247Z,1007.29
2018-04-23T01:00:55.244Z,1007.26
2018-04-23T01:01:55.243Z,1007.27
2018-04-23T01:02:55.245Z,1007.27
2018-04-23T01:03:55.246Z,1007.26
2018-04-23T01:04:55.240Z,1007.25
2018-04-23T01:05:55.239Z,1007.19
2018-04-23T01:06:55.237Z,1007.21
2018-04-23T01:07:55.236Z,1007.19
2018-04-23T01:08:55.240Z,1007.21
2018-04-23T01:09:55.239Z,1007.22
2018-04-23T01:10:55.233Z,1007.16
2018-04-23T01:11:55.233Z,1007.17
2018-04-23T01:12:55.231Z,1007.22
2018-04-23T01:13:55.231Z,1007.21
2018-04-23T01:14:55.229Z,1007.21
2018-04-23T01:15:55.229Z,1007.21
2018-04-23T01:16:55.226Z,1007.29
2018-04-23T01:17:55.230Z,1007.30
2018-04-23T01:18:55.226Z,1007.35
2018-04-23T01:19:55.225Z,1007.32
2018-04-23T01:20:55.227Z,1007.29
2018-04-23T01:21:55.226Z,1007.31
2018-04-23T01:22:55.227Z,1007.27
2018-04-23T01:23:55.225Z,1007.25
2018-04-23T01:24:55.218Z,1007.27
2018-04-23T01:25:55.221Z,1007.28
2018-04-23T01:26:55.218Z,1007.27
2018-04-23T01:27:55.217Z,1007.25
2018-04-23T01:28:55.215Z,1007.28
2018-04-23T01:29:55.215Z,1007.29
2018-04-23T01:30:55.217Z,1007.25
2018-04-23T01:31:55.213Z,1007.27
2018-04-23T01:32:55.211Z,1007.31
2018-04-23T01:33:55.211Z,1007.27
2018-04-23T01:34:55.214Z,1007.34
2018-04-23T01:35:55.212Z,1007.33
2018-04-23T01:36:55.206Z,1007.31
2018-04-23T01:37:55.205Z,1007.26
2018-04-23T01:38:55.204Z,1007.25
2018-04-23T01:39:55.204Z,1007.31
2018-04-23T01:40:55.201Z,1007.33
2018-04-23T01:41:55.201Z,1007.35
2018-04-23T01:42:55.204Z,1007.33
2018-04-23T01:43:55.203Z,1007.36
2018-04-23T01:44:55.197Z,1007.34
2018-04-23T01:45:55.195Z,1007.35
2018-04-23T01:46:55.199Z,1007.40
2018-04-23T01:47:55.198Z,1007.39
2018-04-23T01:48:55.193Z,1007.39
2018-04-23T01:49:55.190Z,1007.41
2018-04-23T01:50:55.190Z,1007.41
2018-04-23T01:51:55.190Z,1007.39
2018-04-23T01:52:55.190Z,1007.39
2018-04-23T01:53:55.187Z,1007.43
2018-04-23T01:54:55.185Z,1007.41
2018-04-23T01:55:55.185Z,1007.40
2018-04-23T01:56:55.183Z,1007.43
2018-04-23T01:57:55.182Z,1007.37
2018-04-23T01:58:55.180Z,1007.47
2018-04-23T01:59:55.180Z,1007.41
2018-04-23T02:00:55.183Z,1007.42
2018-04-23T02:01:55.180Z,1007.43
2018-04-23T02:02:55.176Z,1007.47
2018-04-23T02:03:55.174Z,1007.43
2018-04-23T02:04:55.176Z,1007.42
2018-04-23T02:05:55.178Z,1007.37
2018-04-23T02:06:55.171Z,1007.38
2018-04-23T02:07:55.168Z,1007.36
2018-04-23T02:08:55.168Z,1007.38
2018-04-23T02:09:55.170Z,1007.38
2018-04-23T02:10:55.165Z,1007.44
2018-04-23T02:11:55.165Z,1007.47
2018-04-23T02:12:55.161Z,1007.50
2018-04-23T02:13:55.161Z,1007.53
2018-04-23T02:14:55.164Z,1007.53
2018-04-23T02:15:55.163Z,1007.63
2018-04-23T02:16:55.156Z,1007.62
2018-04-23T02:17:55.155Z,1007.64
2018-04-23T02:18:55.158Z,1007.65
2018-04-23T02:19:55.161Z,1007.69
2018-04-23T02:20:55.151Z,1007.72
2018-04-23T02:21:55.151Z,1007.67
2018-04-23T02:22:55.152Z,1007.62
2018-04-23T02:23:55.148Z,1007.64
2018-04-23T02:24:55.146Z,1007.61
2018-04-23T02:25:55.146Z,1007.57
2018-04-23T02:26:55.144Z,1007.61
2018-04-23T02:27:55.144Z,1007.59
2018-04-23T02:28:55.142Z,1007.56
2018-04-23T02:29:55.140Z,1007.58
2018-04-23T02:30:55.139Z,1007.62
2018-04-23T02:31:55.138Z,1007.65
2018-04-23T02:32:55.141Z,1007.70
2018-04-23T02:33:55.140Z,1007.68
2018-04-23T02:34:55.137Z,1007.68
2018-04-23T02:35:55.134Z,1007.69
2018-04-23T02:36:55.137Z,1007.68
2018-04-23T02:37:55.134Z,1007.73
2018-04-23T02:38:55.131Z,1007.74
2018-04-23T02:39:55.137Z,1007.70
2018-04-23T02:40:55.128Z,1007.68
2018-04-23T02:41:55.128Z,1007.66
2018-04-23T02:42:55.126Z,1007.67
2018-04-23T02:43:55.125Z,1007.64
2018-04-23T02:44:55.128Z,1007.63
2018-04-23T02:45:55.126Z,1007.70
2018-04-23T02:46:55.122Z,1007.69
2018-04-23T02:47:55.121Z,1007.72
2018-04-23T02:48:55.120Z,1007.75
2018-04-23T02:49:55.118Z,1007.79
2018-04-23T02:50:55.117Z,1007.81
2018-04-23T02:51:55.118Z,1007.79
2018-04-23T02:52:55.120Z,1007.84
2018-04-23T02:53:55.114Z,1007.87
2018-04-23T02:54:55.113Z,1007.97
2018-04-23T02:55:55.113Z,1008.08
2018-04-23T02:56:55.115Z,1008.13
2018-04-23T02:57:55.118Z,1008.14
2018-04-23T02:58:55.114Z,1008.18
2018-04-23T02:59:55.113Z,1008.26
2018-04-23T03:00:55.107Z,1008.24
2018-04-23T03:01:55.107Z,1008.17
2018-04-23T03:02:55.107Z,1008.17
2018-04-23T03:03:55.106Z,1008.14
2018-04-23T03:04:55.104Z,1008.15
2018-04-23T03:05:55.103Z,1008.12
2018-04-23T03:06:55.103Z,1008.15
2018-04-23T03:07:55.101Z,1008.08
2018-04-23T03:08:55.101Z,1008.10
2018-04-23T03:09:55.100Z,1008.05
2018-04-23T03:10:55.102Z,1008.07
2018-04-23T03:11:55.101Z,1008.06
2018-04-23T03:12:55.097Z,1008.03
2018-04-23T03:13:55.095Z,1008.06
2018-04-23T03:14:55.099Z,1008.03
2018-04-23T03:15:55.093Z,1008.06
2018-04-23T03:16:55.096Z,1008.00
2018-04-23T03:17:55.095Z,1008.03
2018-04-23T03:18:55.090Z,1008.00
2018-04-23T03:19:55.089Z,1007.96
2018-04-23T03:20:55.089Z,1007.98
2018-04-23T03:21:55.088Z,1007.98
2018-04-23T03:22:55.086Z,1008.03
2018-04-23T03:23:55.085Z,1008.07
2018-04-23T03:24:55.085Z,1008.09
2018-04-23T03:25:55.083Z,1008.10
2018-04-23T03:26:55.082Z,1008.09
2018-04-23T03:27:55.081Z,1008.11
2018-04-23T03:28:55.086Z,1008.06
2018-04-23T03:29:55.086Z,1008.12
2018-04-23T03:30:55.082Z,1008.11
2018-04-23T03:31:55.082Z,1008.03
2018-04-23T03:32:55.076Z,1008.07
2018-04-23T03:33:55.075Z,1008.08
2018-04-23T03:34:55.075Z,1008.10
2018-04-23T03:35:55.075Z,1008.16
2018-04-23T03:36:55.072Z,1008.19
2018-04-23T03:37:55.075Z,1008.19
2018-04-23T03:38:55.071Z,1008.23
2018-04-23T03:39:55.070Z,1008.22
2018-04-23T03:40:55.070Z,1008.19
2018-04-23T03:41:55.068Z,1008.20
2018-04-23T03:42:55.071Z,1008.23
2018-04-23T03:43:55.072Z,1008.19
2018-04-23T03:44:55.064Z,1008.23
2018-04-23T03:45:55.064Z,1008.24
2018-04-23T03:46:55.063Z,1008.22
2018-04-23T03:47:55.063Z,1008.26
2018-04-23T03:48:55.060Z,1008.24
2018-04-23T03:49:55.060Z,1008.23
2018-04-23T03:50:55.060Z,1008.27
2018-04-23T03:51:55.059Z,1008.27
2018-04-23T03:52:55.062Z,1008.22
2018-04-23T03:53:55.060Z,1008.20
2018-04-23T03:54:55.055Z,1008.19
2018-04-23T03:55:55.055Z,1008.16
2018-04-23T03:56:55.061Z,1008.19
2018-04-23T03:57:55.056Z,1008.16
2018-04-23T03:58:55.052Z,1008.18
2018-04-23T03:59:55.051Z,1008.15
2018-04-23T04:00:55.051Z,1008.21
2018-04-23T04:01:55.050Z,1008.16
2018-04-23T04:02:55.048Z,1008.26
2018-04-23T04:03:55.050Z,1008.27
2018-04-23T04:04:55.047Z,1008.25
2018-04-23T04:05:55.046Z,1008.22
2018-04-23T04:06:55.048Z,1008.22
2018-04-23T04:07:55.047Z,1008.22
2018-04-23T04:08:55.045Z,1008.24
2018-04-23T04:09:55.041Z,1008.27
2018-04-23T04:10:55.046Z,1008.31
2018-04-23T04:11:55.047Z,1008.33
2018-04-23T04:12:55.043Z,1008.33
2018-04-23T04:13:55.037Z,1008.33
2018-04-23T04:14:55.036Z,1008.31
2018-04-23T04:15:55.035Z,1008.34
2018-04-23T04:16:55.092Z,1008.33
2018-04-23T04:17:55.032Z,1008.35
2018-04-23T04:18:55.033Z,1008.45
2018-04-23T04:19:55.031Z,1008.44
2018-04-23T04:20:55.030Z,1008.39
2018-04-23T04:21:55.028Z,1008.40
2018-04-23T04:22:55.027Z,1008.42
2018-04-23T04:23:55.028Z,1008.38
2018-04-23T04:24:55.028Z,1008.44
2018-04-23T04:25:55.027Z,1008.47
2018-04-23T04:26:55.023Z,1008.45
2018-04-23T04:27:55.022Z,1008.44
2018-04-23T04:28:55.025Z,1008.42
2018-04-23T04:29:55.023Z,1008.43
2018-04-23T04:30:55.018Z,1008.39
2018-04-23T04:31:55.017Z,1008.41
2018-04-23T04:32:55.015Z,1008.41
2018-04-23T04:33:55.014Z,1008.37
2018-04-23T04:34:55.013Z,1008.41
2018-04-23T04:35:55.013Z,1008.36
2018-04-23T04:36:55.011Z,1008.34
2018-04-23T04:37:55.009Z,1008.37
2018-04-23T04:38:55.012Z,1008.41
2018-04-23T04:39:55.011Z,1008.43
2018-04-23T04:40:55.006Z,1008.46
2018-04-23T04:41:55.006Z,1008.47
2018-04-23T04:42:55.008Z,1008.49
2018-04-23T04:43:55.018Z,1008.51
2018-04-23T04:44:55.001Z,1008.62
2018-04-23T04:45:54.999Z,1008.55
2018-04-23T04:46:54.999Z,1008.61
2018-04-23T04:47:55.002Z,1008.62
2018-04-23T04:48:54.995Z,1008.67
2018-04-23T04:49:54.994Z,1008.61
2018-04-23T04:50:54.999Z,1008.61
2018-04-23T04:51:54.996Z,1008.71
2018-04-23T04:52:54.991Z,1008.67
2018-04-23T04:53:54.991Z,1008.69
2018-04-23T04:54:54.992Z,1008.73
2018-04-23T04:55:54.988Z,1008.76
2018-04-23T04:56:54.986Z,1008.77
2018-04-23T04:57:54.986Z,1008.85
2018-04-23T04:58:54.984Z,1008.86
2018-04-23T04:59:54.984Z,1008.84
2018-04-23T05:00:54.983Z,1008.79
2018-04-23T05:01:54.980Z,1008.76
2018-04-23T05:02:54.983Z,1008.80
2018-04-23T05:03:54.982Z,1008.81
2018-04-23T05:04:54.977Z,1008.86
2018-04-23T05:05:54.981Z,1008.86
2018-04-23T05:06:54.976Z,1008.83
2018-04-23T05:07:54.977Z,1008.80
2018-04-23T05:08:54.977Z,1008.79
2018-04-23T05:09:54.978Z,1008.91
2018-04-23T05:10:54.971Z,1008.93
2018-04-23T05:11:54.970Z,1008.96
2018-04-23T05:12:54.969Z,1008.94
2018-04-23T05:13:54.968Z,1008.94
2018-04-23T05:14:54.967Z,1008.94
2018-04-23T05:15:54.966Z,1008.98
2018-04-23T05:16:54.965Z,1008.99
2018-04-23T05:17:54.964Z,1009.02
2018-04-23T05:18:54.962Z,1009.06
2018-04-23T05:19:54.965Z,1009.11
2018-04-23T05:20:54.965Z,1009.08
2018-04-23T05:21:54.964Z,1009.13
2018-04-23T05:22:54.967Z,1009.17
2018-04-23T05:23:55.002Z,1009.16
2018-04-23T05:24:54.956Z,1009.13
2018-04-23T05:25:54.956Z,1009.11
2018-04-23T05:26:54.957Z,1009.13
2018-04-23T05:27:54.955Z,1009.16
2018-04-23T05:28:54.958Z,1009.20
2018-04-23T05:29:54.998Z,1009.21
2018-04-23T05:30:54.953Z,1009.20
2018-04-23T05:31:54.952Z,1009.25
2018-04-23T05:32:54.950Z,1009.27
2018-04-23T05:33:54.950Z,1009.25
2018-04-23T05:34:54.953Z,1009.22
2018-04-23T05:35:54.953Z,1009.29
2018-04-23T05:36:54.948Z,1009.34
2018-04-23T05:37:54.947Z,1009.35
2018-04-23T05:38:54.947Z,1009.35
2018-04-23T05:39:54.947Z,1009.35
2018-04-23T05:40:54.961Z,1009.40
2018-04-23T05:41:54.953Z,1009.46
2018-04-23T05:42:54.947Z,1009.50
2018-04-23T05:43:54.947Z,1009.49
2018-04-23T05:44:54.943Z,1009.54
2018-04-23T05:45:54.944Z,1009.54
2018-04-23T05:46:54.944Z,1009.58
2018-04-23T05:47:54.945Z,1009.61
2018-04-23T05:48:54.943Z,1009.55
2018-04-23T05:49:54.944Z,1009.58
2018-04-23T05:50:54.943Z,1009.62
2018-04-23T05:51:54.941Z,1009.62
2018-04-23T05:52:54.949Z,1009.71
2018-04-23T05:53:54.946Z,1009.71
2018-04-23T05:54:54.980Z,1009.74
2018-04-23T05:55:54.946Z,1009.72
2018-04-23T05:56:54.941Z,1009.75
2018-04-23T05:57:54.942Z,1009.75
2018-04-23T05:58:54.942Z,1009.75
2018-04-23T05:59:54.944Z,1009.73
2018-04-23T06:00:54.946Z,1009.76
2018-04-23T06:01:54.947Z,1009.81
2018-04-23T06:02:54.944Z,1009.84
2018-04-23T06:03:54.945Z,1009.76
2018-04-23T06:04:54.949Z,1009.79
2018-04-23T06:05:54.948Z,1009.74
2018-04-23T06:06:54.946Z,1009.75
2018-04-23T06:07:54.948Z,1009.76
2018-04-23T06:08:55.012Z,1009.82
2018-04-23T06:09:54.947Z,1009.85
2018-04-23T06:10:54.949Z,1009.88
2018-04-23T06:11:54.950Z,1009.84
2018-04-23T06:12:54.951Z,1009.86
2018-04-23T06:13:54.951Z,1009.85
2018-04-23T06:14:54.956Z,1009.78
2018-04-23T06:15:54.958Z,1009.79
2018-04-23T06:16:54.955Z,1009.82
2018-04-23T06:17:54.954Z,1009.89
2018-04-23T06:18:54.961Z,1009.88
2018-04-23T06:19:54.963Z,1009.88
2018-04-23T06:20:54.957Z,1009.85
2018-04-23T06:21:54.977Z,1009.83
2018-04-23T06:22:54.959Z,1009.85
2018-04-23T06:23:54.960Z,1009.92
2018-04-23T06:24:54.961Z,1009.92
2018-04-23T06:25:54.962Z,1009.90
2018-04-23T06:26:54.963Z,1009.89
2018-04-23T06:27:54.966Z,1009.91
2018-04-23T06:28:54.970Z,1009.91
2018-04-23T06:29:54.964Z,1009.90
2018-04-23T06:30:54.966Z,1009.94
2018-04-23T06:31:54.967Z,1009.98
2018-04-23T06:32:54.975Z,1009.97
2018-04-23T06:33:54.971Z,1009.97
2018-04-23T06:34:54.969Z,1009.97
2018-04-23T06:35:54.970Z,1009.98
2018-04-23T06:36:54.973Z,1009.97
2018-04-23T06:37:54.974Z,1010.03
2018-04-23T06:38:54.971Z,1010.11
2018-04-23T06:39:54.973Z,1010.20
2018-04-23T06:40:54.974Z,1010.32
2018-04-23T06:41:54.973Z,1010.24
2018-04-23T06:42:54.975Z,1010.27
2018-04-23T06:43:54.976Z,1010.20
2018-04-23T06:44:54.976Z,1010.30
2018-04-23T06:45:55.029Z,1010.43
2018-04-23T06:46:54.983Z,1010.42
2018-04-23T06:47:54.985Z,1010.44
2018-04-23T06:48:54.987Z,1010.33
2018-04-23T06:49:54.985Z,1010.26
2018-04-23T06:50:54.990Z,1010.24
2018-04-23T06:51:54.991Z,1010.27
2018-04-23T06:52:54.988Z,1010.36
2018-04-23T06:53:54.990Z,1010.36
2018-04-23T06:54:54.994Z,1010.40
2018-04-23T06:55:54.996Z,1010.39
2018-04-23T06:56:54.998Z,1010.40
2018-04-23T06:57:54.999Z,1010.41
2018-04-23T06:58:55.005Z,1010.38
2018-04-23T06:59:55.009Z,1010.31
2018-04-23T07:00:55.005Z,1010.35
2018-04-23T07:01:55.008Z,1010.44
2018-04-23T07:02:55.011Z,1010.40
2018-04-23T07:03:55.013Z,1010.38
2018-04-23T07:04:55.027Z,1010.40
2018-04-23T07:05:55.016Z,1010.46
2018-04-23T07:06:55.018Z,1010.47
2018-04-23T07:07:55.020Z,1010.49
2018-04-23T07:08:55.022Z,1010.55
2018-04-23T07:09:55.024Z,1010.49
2018-04-23T07:10:55.030Z,1010.45
2018-04-23T07:11:55.031Z,1010.43
2018-04-23T07:12:55.030Z,1010.43
2018-04-23T07:13:55.031Z,1010.39
2018-04-23T07:14:55.032Z,1010.47
2018-04-23T07:15:55.033Z,1010.48
2018-04-23T07:16:55.045Z,1010.50
2018-04-23T07:17:55.043Z,1010.49
2018-04-23T07:18:55.044Z,1010.52
2018-04-23T07:19:55.041Z,1010.47
2018-04-23T07:20:55.041Z,1010.45
2018-04-23T07:21:55.045Z,1010.48
2018-04-23T07:22:55.047Z,1010.49
2018-04-23T07:23:55.047Z,1010.53
2018-04-23T07:24:55.050Z,1010.51
2018-04-23T07:25:55.052Z,1010.54
2018-04-23T07:26:55.052Z,1010.62
2018-04-23T07:27:55.055Z,1010.58
2018-04-23T07:28:55.060Z,1010.63
2018-04-23T07:29:55.063Z,1010.61
2018-04-23T07:30:55.064Z,1010.65
2018-04-23T07:31:55.066Z,1010.63
2018-04-23T07:32:55.065Z,1010.68
2018-04-23T07:33:55.066Z,1010.61
2018-04-23T07:34:55.091Z,1010.66
2018-04-23T07:35:55.072Z,1010.71
2018-04-23T07:36:55.074Z,1010.67
2018-04-23T07:37:55.077Z,1010.75
2018-04-23T07:38:55.080Z,1010.96
2018-04-23T07:39:55.082Z,1010.92
2018-04-23T07:40:55.084Z,1010.93
2018-04-23T07:41:55.089Z,1011.11
2018-04-23T07:42:55.096Z,1011.10
2018-04-23T07:43:55.102Z,1011.17
2018-04-23T07:44:55.103Z,1011.19
2018-04-23T07:45:55.108Z,1011.24
2018-04-23T07:46:55.110Z,1011.31
2018-04-23T07:47:55.151Z,1011.34
2018-04-23T07:48:55.127Z,1011.17
2018-04-23T07:49:55.131Z,1011.16
2018-04-23T07:50:55.135Z,1011.36
2018-04-23T07:51:55.143Z,1011.37
2018-04-23T07:52:55.158Z,1011.47
2018-04-23T07:53:55.157Z,1011.47
2018-04-23T07:54:55.165Z,1011.22
2018-04-23T07:55:55.173Z,1011.18
2018-04-23T07:56:55.181Z,1011.11
2018-04-23T07:57:55.188Z,1011.11
2018-04-23T07:58:55.197Z,1011.06
2018-04-23T07:59:55.263Z,1011.11
2018-04-23T08:00:55.219Z,1011.17
2018-04-23T08:01:55.227Z,1011.33
2018-04-23T08:02:55.237Z,1011.18
2018-04-23T08:03:55.245Z,1011.46
2018-04-23T08:04:55.249Z,1011.31
2018-04-23T08:05:55.258Z,1011.28
2018-04-23T08:06:55.323Z,1011.28
2018-04-23T08:07:55.276Z,1011.32
2018-04-23T08:08:55.283Z,1011.27
2018-04-23T08:09:55.294Z,1011.32
2018-04-23T08:10:55.303Z,1011.40
2018-04-23T08:11:55.310Z,1011.41
2018-04-23T08:12:55.320Z,1011.31
2018-04-23T08:13:55.328Z,1011.37
2018-04-23T08:14:55.342Z,1011.44
2018-04-23T08:15:55.351Z,1011.53
2018-04-23T08:16:55.362Z,1011.62
2018-04-23T08:17:55.365Z,1011.72
2018-04-23T08:18:55.378Z,1011.50
2018-04-23T08:19:55.385Z,1011.45
2018-04-23T08:20:55.396Z,1011.45
2018-04-23T08:21:55.406Z,1011.68
2018-04-23T08:22:55.412Z,1011.78
2018-04-23T08:23:55.423Z,1011.72
2018-04-23T08:24:55.433Z,1011.85
2018-04-23T08:25:55.444Z,1011.81
2018-04-23T08:26:55.461Z,1011.80
2018-04-23T08:27:55.466Z,1011.86
2018-04-23T08:28:55.480Z,1011.86
2018-04-23T08:29:55.494Z,1011.84
2018-04-23T08:30:55.502Z,1011.92
2018-04-23T08:31:55.557Z,1011.98
2018-04-23T08:32:55.530Z,1011.96
2018-04-23T08:33:55.543Z,1012.03
2018-04-23T08:34:55.557Z,1011.94
2018-04-23T08:35:55.574Z,1012.00
2018-04-23T08:36:55.581Z,1011.90
2018-04-23T08:37:55.596Z,1012.02
2018-04-23T08:38:55.611Z,1012.11
2018-04-23T08:39:55.625Z,1012.11
2018-04-23T08:40:55.640Z,1012.07
2018-04-23T08:41:55.662Z,1012.10
2018-04-23T08:42:55.674Z,1012.14
2018-04-23T08:43:55.722Z,1012.11
2018-04-23T08:44:55.702Z,1012.25
2018-04-23T08:45:55.717Z,1012.26
2018-04-23T08:46:55.738Z,1012.37
2018-04-23T08:47:55.754Z,1012.34
2018-04-23T08:48:55.820Z,1012.33
2018-04-23T08:49:55.782Z,1012.39
2018-04-23T08:50:55.799Z,1012.38
2018-04-23T08:51:55.815Z,1012.39
2018-04-23T08:52:55.839Z,1012.35
2018-04-23T08:53:55.852Z,1012.37
2018-04-23T08:54:55.868Z,1012.45
2018-04-23T08:55:55.910Z,1012.50
2018-04-23T08:56:55.904Z,1012.52
2018-04-23T08:57:55.919Z,1012.52
2018-04-23T08:58:55.935Z,1012.58
2018-04-23T08:59:55.988Z,1012.59
2018-04-23T09:00:55.971Z,1012.59
2018-04-23T09:01:55.990Z,1012.58
2018-04-23T09:02:56.010Z,1012.50
2018-04-23T09:03:56.028Z,1012.50
2018-04-23T09:04:56.047Z,1012.43
2018-04-23T09:05:56.064Z,1012.47
2018-04-23T09:06:56.079Z,1012.42
2018-04-23T09:07:56.098Z,1012.38
2018-04-23T09:08:56.116Z,1012.41
2018-04-23T09:09:56.136Z,1012.35
2018-04-23T09:10:56.155Z,1012.25
2018-04-23T09:11:56.172Z,1012.23
2018-04-23T09:12:56.194Z,1012.22
2018-04-23T09:13:56.214Z,1012.20
2018-04-23T09:14:56.238Z,1012.15
2018-04-23T09:15:56.249Z,1012.13
2018-04-23T09:16:56.271Z,1012.25
2018-04-23T09:17:56.364Z,1012.23
2018-04-23T09:18:56.307Z,1012.28
2018-04-23T09:19:56.326Z,1012.28
2018-04-23T09:20:56.349Z,1012.28
2018-04-23T09:21:56.366Z,1012.34
2018-04-23T09:22:56.385Z,1012.47
2018-04-23T09:23:56.406Z,1012.50
2018-04-23T09:24:56.424Z,1012.60
2018-04-23T09:25:56.445Z,1012.62
2018-04-23T09:26:56.475Z,1012.70
2018-04-23T09:27:56.491Z,1012.75
2018-04-23T09:28:56.505Z,1012.87
2018-04-23T09:29:56.529Z,1012.86
2018-04-23T09:30:56.549Z,1012.87
2018-04-23T09:31:56.570Z,1012.88
2018-04-23T09:32:56.586Z,1012.92
2018-04-23T09:33:56.607Z,1012.92
2018-04-23T09:34:56.628Z,1012.98
2018-04-23T09:35:56.650Z,1012.86
2018-04-23T09:36:56.668Z,1012.66
2018-04-23T09:37:56.690Z,1012.69
2018-04-23T09:38:56.737Z,1012.36
2018-04-23T09:39:56.733Z,1012.51
2018-04-23T09:40:56.760Z,1012.55
2018-04-23T09:41:56.776Z,1012.62
2018-04-23T09:42:56.797Z,1012.60
2018-04-23T09:43:56.820Z,1012.65
2018-04-23T09:44:56.840Z,1012.69
2018-04-23T09:45:56.861Z,1012.66
2018-04-23T09:46:56.880Z,1012.09
2018-04-23T09:47:56.900Z,1012.24
2018-04-23T09:48:56.924Z,1012.02
2018-04-23T09:49:56.946Z,1012.60
2018-04-23T09:50:56.962Z,1012.69
2018-04-23T09:51:56.984Z,1012.10
2018-04-23T09:52:57.002Z,1012.78
2018-04-23T09:53:57.023Z,1012.13
2018-04-23T09:54:57.043Z,1012.10
2018-04-23T09:55:57.062Z,1012.73
2018-04-23T09:56:57.081Z,1012.14
2018-04-23T09:57:57.099Z,1012.57
2018-04-23T09:58:57.121Z,1012.00
2018-04-23T09:59:57.140Z,1012.15
2018-04-23T10:00:57.153Z,1012.58
2018-04-23T10:01:57.172Z,1012.07
2018-04-23T10:02:57.194Z,1012.54
2018-04-23T10:03:57.213Z,1012.57
2018-04-23T10:04:57.224Z,1011.97
2018-04-23T10:05:57.242Z,1012.20
2018-04-23T10:06:57.259Z,1012.55
2018-04-23T10:07:57.276Z,1012.57
2018-04-23T10:08:57.292Z,1012.61
2018-04-23T10:09:57.310Z,1012.62
2018-04-23T10:10:57.331Z,1012.62
2018-04-23T10:11:57.349Z,1012.69
2018-04-23T10:12:57.367Z,1012.70
2018-04-23T10:13:57.378Z,1012.73
2018-04-23T10:14:57.396Z,1012.65
2018-04-23T10:15:57.415Z,1012.63
2018-04-23T10:16:57.432Z,1012.24
2018-04-23T10:17:57.453Z,1012.57
2018-04-23T10:18:57.468Z,1012.64
2018-04-23T10:19:57.487Z,1012.29
2018-04-23T10:20:57.565Z,1012.66
2018-04-23T10:21:57.525Z,1012.64
2018-04-23T10:22:57.545Z,1012.64
2018-04-23T10:23:57.566Z,1012.60
2018-04-23T10:24:57.579Z,1012.56
2018-04-23T10:25:57.640Z,1012.68
2018-04-23T10:26:57.616Z,1012.64
2018-04-23T10:27:57.634Z,1012.50
2018-04-23T10:28:57.657Z,1012.56
2018-04-23T10:29:57.676Z,1012.71
2018-04-23T10:30:57.690Z,1012.46
2018-04-23T10:31:57.709Z,1012.49
2018-04-23T10:32:57.727Z,1012.49
2018-04-23T10:33:57.749Z,1012.64
2018-04-23T10:34:57.766Z,1012.24
2018-04-23T10:35:57.786Z,1012.29
2018-04-23T10:36:57.805Z,1012.46
2018-04-23T10:37:57.824Z,1012.24
2018-04-23T10:38:57.888Z,1012.22
2018-04-23T10:39:57.863Z,1012.20
2018-04-23T10:40:57.881Z,1012.25
2018-04-23T10:41:57.899Z,1012.31
2018-04-23T10:42:57.916Z,1012.50
2018-04-23T10:43:57.938Z,1012.47
2018-04-23T10:44:57.949Z,1012.50
2018-04-23T10:45:57.962Z,1012.40
2018-04-23T10:46:57.984Z,1012.18
2018-04-23T10:47:57.997Z,1012.09
2018-04-23T10:48:58.013Z,1012.13
2018-04-23T10:49:58.034Z,1012.32
2018-04-23T10:50:58.047Z,1012.20
2018-04-23T10:51:58.061Z,1012.14
2018-04-23T10:52:58.077Z,1012.14
2018-04-23T10:53:58.092Z,1012.10
2018-04-23T10:54:58.111Z,1012.46
2018-04-23T10:55:58.128Z,1012.40
2018-04-23T10:56:58.138Z,1012.46
2018-04-23T10:57:58.155Z,1012.15
2018-04-23T10:58:58.170Z,1012.22
2018-04-23T10:59:58.187Z,1012.23
2018-04-23T11:00:58.201Z,1012.46
2018-04-23T11:01:58.220Z,1012.44
2018-04-23T11:02:58.228Z,1012.33
2018-04-23T11:03:58.242Z,1012.36
2018-04-23T11:04:58.257Z,1012.36
2018-04-23T11:05:58.272Z,1012.38
2018-04-23T11:06:58.286Z,1012.33
2018-04-23T11:07:58.305Z,1012.40
2018-04-23T11:08:58.316Z,1012.39
2018-04-23T11:09:58.332Z,1012.47
2018-04-23T11:10:58.347Z,1012.51
2018-04-23T11:11:58.362Z,1012.43
2018-04-23T11:12:58.381Z,1012.40
2018-04-23T11:13:58.398Z,1012.10
2018-04-23T11:14:58.414Z,1012.04
2018-04-23T11:15:58.424Z,1012.06
2018-04-23T11:16:58.443Z,1012.04
2018-04-23T11:17:58.455Z,1012.04
2018-04-23T11:18:58.475Z,1012.16
2018-04-23T11:19:58.487Z,1012.01
2018-04-23T11:20:58.505Z,1012.04
2018-04-23T11:21:58.519Z,1012.00
2018-04-23T11:22:58.531Z,1012.02
2018-04-23T11:23:58.545Z,1011.92
2018-04-23T11:24:58.564Z,1011.91
2018-04-23T11:25:58.576Z,1011.86
2018-04-23T11:26:58.588Z,1011.84
2018-04-23T11:27:58.602Z,1011.82
2018-04-23T11:28:58.621Z,1011.85
2018-04-23T11:29:58.626Z,1011.79
2018-04-23T11:30:58.642Z,1011.77
2018-04-23T11:31:58.652Z,1011.84
2018-04-23T11:32:58.662Z,1011.81
2018-04-23T11:33:58.674Z,1011.82
2018-04-23T11:34:58.691Z,1011.79
2018-04-23T11:35:58.701Z,1011.77
2018-04-23T11:36:58.707Z,1011.73
2018-04-23T11:37:58.718Z,1011.73
2018-04-23T11:38:58.732Z,1011.76
2018-04-23T11:39:58.745Z,1011.80
2018-04-23T11:40:58.748Z,1011.71
2018-04-23T11:41:58.758Z,1011.74
2018-04-23T11:42:58.769Z,1011.68
2018-04-23T11:43:58.778Z,1011.63
2018-04-23T11:44:58.787Z,1011.72
2018-04-23T11:45:58.795Z,1011.68
2018-04-23T11:46:58.803Z,1011.72
2018-04-23T11:47:58.813Z,1011.73
2018-04-23T11:48:58.820Z,1011.72
2018-04-23T11:49:58.829Z,1011.73
2018-04-23T11:50:58.836Z,1011.79
2018-04-23T11:51:58.845Z,1011.77
2018-04-23T11:52:58.856Z,1011.78
2018-04-23T11:53:58.863Z,1011.74
2018-04-23T11:54:58.870Z,1011.72
2018-04-23T11:55:58.875Z,1011.79
2018-04-23T11:56:58.886Z,1011.82
2018-04-23T11:57:58.893Z,1011.77
2018-04-23T11:58:58.897Z,1011.75
2018-04-23T11:59:58.904Z,1011.74
2018-04-23T12:00:58.910Z,1011.72
2018-04-23T12:01:58.919Z,1011.70
2018-04-23T12:02:58.925Z,1011.67
2018-04-23T12:03:58.935Z,1011.71
2018-04-23T12:04:58.939Z,1011.70
2018-04-23T12:05:58.946Z,1011.75